sensor_id;sensor_type;location;lat;lon;timestamp;temperature;humidity
13569;DHT22;6856;51.460;7.158;2022-09-13T00:00:23;21.90;51.70
13569;DHT22;6856;51.460;7.158;2022-09-13T00:02:56;21.90;51.70
13569;DHT22;6856;51.460;7.158;2022-09-13T00:05:31;21.90;51.70
13569;DHT22;6856;51.460;7.158;2022-09-13T00:08:06;21.80;51.80
13569;DHT22;6856;51.460;7.158;2022-09-13T00:10:43;21.80;52.00
13569;DHT22;6856;51.460;7.158;2022-09-13T00:13:17;21.80;52.20
13569;DHT22;6856;51.460;7.158;2022-09-13T00:15:50;21.80;51.90
13569;DHT22;6856;51.460;7.158;2022-09-13T00:18:24;21.80;51.90
13569;DHT22;6856;51.460;7.158;2022-09-13T00:21:05;21.80;51.90
13569;DHT22;6856;51.460;7.158;2022-09-13T00:23:42;21.80;52.10
13569;DHT22;6856;51.460;7.158;2022-09-13T00:26:20;21.80;52.10
13569;DHT22;6856;51.460;7.158;2022-09-13T00:28:57;21.80;52.10
13569;DHT22;6856;51.460;7.158;2022-09-13T00:31:31;21.80;52.10
13569;DHT22;6856;51.460;7.158;2022-09-13T00:34:04;21.80;52.00
13569;DHT22;6856;51.460;7.158;2022-09-13T00:36:38;21.60;51.80
13569;DHT22;6856;51.460;7.158;2022-09-13T00:39:11;21.80;52.10
13569;DHT22;6856;51.460;7.158;2022-09-13T00:41:46;21.80;52.10
13569;DHT22;6856;51.460;7.158;2022-09-13T00:44:47;21.80;52.20
13569;DHT22;6856;51.460;7.158;2022-09-13T00:47:32;21.80;52.40
13569;DHT22;6856;51.460;7.158;2022-09-13T00:50:13;21.80;52.30
13569;DHT22;6856;51.460;7.158;2022-09-13T00:52:58;21.80;52.20
13569;DHT22;6856;51.460;7.158;2022-09-13T00:55:39;21.80;52.20
13569;DHT22;6856;51.460;7.158;2022-09-13T00:58:20;21.80;52.30
13569;DHT22;6856;51.460;7.158;2022-09-13T01:00:57;21.70;52.20
13569;DHT22;6856;51.460;7.158;2022-09-13T01:03:35;21.80;52.40
13569;DHT22;6856;51.460;7.158;2022-09-13T01:06:12;21.80;52.40
13569;DHT22;6856;51.460;7.158;2022-09-13T01:08:51;21.80;52.30
13569;DHT22;6856;51.460;7.158;2022-09-13T01:11:31;21.80;52.30
13569;DHT22;6856;51.460;7.158;2022-09-13T01:14:12;21.80;52.40
13569;DHT22;6856;51.460;7.158;2022-09-13T01:16:47;21.80;52.30
13569;DHT22;6856;51.460;7.158;2022-09-13T01:19:20;21.80;52.30
13569;DHT22;6856;51.460;7.158;2022-09-13T01:30:02;21.80;52.50
13569;DHT22;6856;51.460;7.158;2022-09-13T01:32:56;21.70;52.30
13569;DHT22;6856;51.460;7.158;2022-09-13T01:35:56;21.70;52.30
13569;DHT22;6856;51.460;7.158;2022-09-13T01:38:52;21.70;52.30
13569;DHT22;6856;51.460;7.158;2022-09-13T01:41:46;21.70;52.40
13569;DHT22;6856;51.460;7.158;2022-09-13T01:44:33;21.70;52.40
13569;DHT22;6856;51.460;7.158;2022-09-13T01:47:32;21.70;52.40
13569;DHT22;6856;51.460;7.158;2022-09-13T01:50:20;21.70;52.40
13569;DHT22;6856;51.460;7.158;2022-09-13T01:53:00;21.70;52.30
13569;DHT22;6856;51.460;7.158;2022-09-13T01:55:42;21.70;52.40
13569;DHT22;6856;51.460;7.158;2022-09-13T01:58:25;21.60;52.90
13569;DHT22;6856;51.460;7.158;2022-09-13T02:01:06;21.70;52.40
13569;DHT22;6856;51.460;7.158;2022-09-13T02:03:51;21.60;52.50
13569;DHT22;6856;51.460;7.158;2022-09-13T02:06:31;21.60;52.50
13569;DHT22;6856;51.460;7.158;2022-09-13T02:09:11;21.60;52.50
13569;DHT22;6856;51.460;7.158;2022-09-13T02:11:57;21.60;52.50
13569;DHT22;6856;51.460;7.158;2022-09-13T02:14:38;21.60;52.60
13569;DHT22;6856;51.460;7.158;2022-09-13T02:17:16;21.60;52.60
13569;DHT22;6856;51.460;7.158;2022-09-13T02:19:57;21.60;52.60
13569;DHT22;6856;51.460;7.158;2022-09-13T02:22:37;21.60;52.70
13569;DHT22;6856;51.460;7.158;2022-09-13T02:25:16;21.60;52.70
13569;DHT22;6856;51.460;7.158;2022-09-13T02:27:58;21.60;52.60
13569;DHT22;6856;51.460;7.158;2022-09-13T02:30:37;21.60;52.70
13569;DHT22;6856;51.460;7.158;2022-09-13T02:33:17;21.60;52.70
13569;DHT22;6856;51.460;7.158;2022-09-13T02:36:00;21.60;52.80
13569;DHT22;6856;51.460;7.158;2022-09-13T02:38:40;21.60;52.60
13569;DHT22;6856;51.460;7.158;2022-09-13T02:41:20;21.60;52.80
13569;DHT22;6856;51.460;7.158;2022-09-13T02:44:05;21.60;52.80
13569;DHT22;6856;51.460;7.158;2022-09-13T02:46:55;21.60;53.30
13569;DHT22;6856;51.460;7.158;2022-09-13T02:49:47;21.60;53.00
13569;DHT22;6856;51.460;7.158;2022-09-13T02:52:35;21.60;53.00
13569;DHT22;6856;51.460;7.158;2022-09-13T02:55:20;21.50;52.90
13569;DHT22;6856;51.460;7.158;2022-09-13T02:58:02;21.50;53.40
13569;DHT22;6856;51.460;7.158;2022-09-13T03:00:47;21.50;52.90
13569;DHT22;6856;51.460;7.158;2022-09-13T03:03:21;21.50;53.00
13569;DHT22;6856;51.460;7.158;2022-09-13T03:05:55;21.50;52.90
13569;DHT22;6856;51.460;7.158;2022-09-13T03:08:30;21.50;52.90
13569;DHT22;6856;51.460;7.158;2022-09-13T03:11:12;21.50;53.00
13569;DHT22;6856;51.460;7.158;2022-09-13T03:14:07;21.50;53.20
13569;DHT22;6856;51.460;7.158;2022-09-13T03:17:07;21.50;53.10
13569;DHT22;6856;51.460;7.158;2022-09-13T03:20:02;21.50;53.20
13569;DHT22;6856;51.460;7.158;2022-09-13T03:26:20;21.50;53.20
13569;DHT22;6856;51.460;7.158;2022-09-13T03:29:09;21.50;53.10
13569;DHT22;6856;51.460;7.158;2022-09-13T03:32:01;21.50;53.10
13569;DHT22;6856;51.460;7.158;2022-09-13T03:34:47;21.50;53.10
13569;DHT22;6856;51.460;7.158;2022-09-13T03:37:31;21.60;53.50
13569;DHT22;6856;51.460;7.158;2022-09-13T03:40:13;21.60;53.70
13569;DHT22;6856;51.460;7.158;2022-09-13T03:42:52;21.50;53.20
13569;DHT22;6856;51.460;7.158;2022-09-13T03:45:40;21.60;53.40
13569;DHT22;6856;51.460;7.158;2022-09-13T03:48:25;21.60;53.50
13569;DHT22;6856;51.460;7.158;2022-09-13T03:51:00;21.60;53.70
13569;DHT22;6856;51.460;7.158;2022-09-13T03:53:36;21.60;54.10
13569;DHT22;6856;51.460;7.158;2022-09-13T03:56:17;21.60;53.90
13569;DHT22;6856;51.460;7.158;2022-09-13T03:58:51;21.60;53.70
13569;DHT22;6856;51.460;7.158;2022-09-13T04:01:26;21.60;53.80
13569;DHT22;6856;51.460;7.158;2022-09-13T04:04:13;21.60;53.90
13569;DHT22;6856;51.460;7.158;2022-09-13T04:06:47;21.60;54.20
13569;DHT22;6856;51.460;7.158;2022-09-13T04:09:20;21.50;53.90
13569;DHT22;6856;51.460;7.158;2022-09-13T04:11:55;21.50;54.00
13569;DHT22;6856;51.460;7.158;2022-09-13T04:14:29;21.50;54.20
13569;DHT22;6856;51.460;7.158;2022-09-13T04:17:02;21.50;54.20
13569;DHT22;6856;51.460;7.158;2022-09-13T04:19:36;21.50;54.40
13569;DHT22;6856;51.460;7.158;2022-09-13T04:22:10;21.50;54.40
13569;DHT22;6856;51.460;7.158;2022-09-13T04:24:44;21.50;54.40
13569;DHT22;6856;51.460;7.158;2022-09-13T04:27:19;21.40;54.50
13569;DHT22;6856;51.460;7.158;2022-09-13T04:29:52;21.40;54.50
13569;DHT22;6856;51.460;7.158;2022-09-13T04:32:26;21.40;54.50
13569;DHT22;6856;51.460;7.158;2022-09-13T04:35:00;21.40;54.60
13569;DHT22;6856;51.460;7.158;2022-09-13T04:37:34;21.40;54.70
13569;DHT22;6856;51.460;7.158;2022-09-13T04:40:08;21.40;54.80
13569;DHT22;6856;51.460;7.158;2022-09-13T04:42:44;21.40;54.80
13569;DHT22;6856;51.460;7.158;2022-09-13T04:45:17;21.40;54.80
13569;DHT22;6856;51.460;7.158;2022-09-13T04:47:51;21.40;54.80
13569;DHT22;6856;51.460;7.158;2022-09-13T04:50:25;21.40;55.00
13569;DHT22;6856;51.460;7.158;2022-09-13T04:52:58;21.40;55.20
13569;DHT22;6856;51.460;7.158;2022-09-13T04:55:33;21.30;55.00
13569;DHT22;6856;51.460;7.158;2022-09-13T04:58:09;21.30;55.00
13569;DHT22;6856;51.460;7.158;2022-09-13T05:00:42;21.30;55.10
13569;DHT22;6856;51.460;7.158;2022-09-13T05:03:16;21.30;55.10
13569;DHT22;6856;51.460;7.158;2022-09-13T05:05:50;21.30;55.10
13569;DHT22;6856;51.460;7.158;2022-09-13T05:08:24;21.30;55.20
13569;DHT22;6856;51.460;7.158;2022-09-13T05:10:58;21.30;55.20
13569;DHT22;6856;51.460;7.158;2022-09-13T05:13:33;21.30;55.20
13569;DHT22;6856;51.460;7.158;2022-09-13T05:16:07;21.30;55.30
13569;DHT22;6856;51.460;7.158;2022-09-13T05:18:41;21.30;55.40
13569;DHT22;6856;51.460;7.158;2022-09-13T05:21:16;21.30;55.40
13569;DHT22;6856;51.460;7.158;2022-09-13T05:23:51;21.30;55.40
13569;DHT22;6856;51.460;7.158;2022-09-13T05:26:27;21.30;55.50
13569;DHT22;6856;51.460;7.158;2022-09-13T05:29:04;21.30;55.60
13569;DHT22;6856;51.460;7.158;2022-09-13T05:31:39;21.30;55.60
13569;DHT22;6856;51.460;7.158;2022-09-13T05:34:15;21.20;55.60
13569;DHT22;6856;51.460;7.158;2022-09-13T05:36:50;21.30;55.60
13569;DHT22;6856;51.460;7.158;2022-09-13T05:39:25;21.30;55.50
13569;DHT22;6856;51.460;7.158;2022-09-13T05:42:18;21.30;55.60
13569;DHT22;6856;51.460;7.158;2022-09-13T05:44:53;21.30;55.50
13569;DHT22;6856;51.460;7.158;2022-09-13T05:47:28;21.30;55.60
13569;DHT22;6856;51.460;7.158;2022-09-13T05:50:01;21.30;55.60
13569;DHT22;6856;51.460;7.158;2022-09-13T05:52:54;21.30;55.60
13569;DHT22;6856;51.460;7.158;2022-09-13T05:55:28;21.30;56.20
13569;DHT22;6856;51.460;7.158;2022-09-13T05:58:02;21.30;55.60
13569;DHT22;6856;51.460;7.158;2022-09-13T06:00:38;21.30;55.70
13569;DHT22;6856;51.460;7.158;2022-09-13T06:03:11;21.30;55.60
13569;DHT22;6856;51.460;7.158;2022-09-13T06:05:45;21.30;55.60
13569;DHT22;6856;51.460;7.158;2022-09-13T06:08:18;21.40;55.60
13569;DHT22;6856;51.460;7.158;2022-09-13T06:10:56;21.40;55.50
13569;DHT22;6856;51.460;7.158;2022-09-13T06:13:31;21.40;55.50
13569;DHT22;6856;51.460;7.158;2022-09-13T06:16:08;21.40;55.50
13569;DHT22;6856;51.460;7.158;2022-09-13T06:18:44;21.40;55.60
13569;DHT22;6856;51.460;7.158;2022-09-13T06:21:19;21.40;55.50
13569;DHT22;6856;51.460;7.158;2022-09-13T06:23:59;21.40;55.60
13569;DHT22;6856;51.460;7.158;2022-09-13T06:26:34;21.40;55.50
13569;DHT22;6856;51.460;7.158;2022-09-13T06:29:10;21.50;55.50
13569;DHT22;6856;51.460;7.158;2022-09-13T06:31:45;21.50;55.50
13569;DHT22;6856;51.460;7.158;2022-09-13T06:34:18;21.50;55.50
13569;DHT22;6856;51.460;7.158;2022-09-13T06:36:51;21.50;55.50
13569;DHT22;6856;51.460;7.158;2022-09-13T06:39:25;21.50;55.60
13569;DHT22;6856;51.460;7.158;2022-09-13T06:41:58;21.50;55.60
13569;DHT22;6856;51.460;7.158;2022-09-13T06:44:32;21.50;55.60
13569;DHT22;6856;51.460;7.158;2022-09-13T06:47:07;21.50;55.60
13569;DHT22;6856;51.460;7.158;2022-09-13T06:49:40;21.50;55.60
13569;DHT22;6856;51.460;7.158;2022-09-13T06:52:14;21.60;55.60
13569;DHT22;6856;51.460;7.158;2022-09-13T06:54:47;21.60;55.60
13569;DHT22;6856;51.460;7.158;2022-09-13T06:57:20;21.60;55.70
13569;DHT22;6856;51.460;7.158;2022-09-13T06:59:54;21.60;55.70
13569;DHT22;6856;51.460;7.158;2022-09-13T07:02:28;21.60;55.80
13569;DHT22;6856;51.460;7.158;2022-09-13T07:05:04;21.60;55.70
13569;DHT22;6856;51.460;7.158;2022-09-13T07:07:38;21.60;55.70
13569;DHT22;6856;51.460;7.158;2022-09-13T07:10:11;21.70;55.70
13569;DHT22;6856;51.460;7.158;2022-09-13T07:12:45;21.70;55.90
13569;DHT22;6856;51.460;7.158;2022-09-13T07:15:18;21.80;56.00
13569;DHT22;6856;51.460;7.158;2022-09-13T07:18:07;21.80;56.10
13569;DHT22;6856;51.460;7.158;2022-09-13T07:20:40;22.00;56.10
13569;DHT22;6856;51.460;7.158;2022-09-13T07:23:13;21.90;55.90
13569;DHT22;6856;51.460;7.158;2022-09-13T07:25:53;21.90;55.70
13569;DHT22;6856;51.460;7.158;2022-09-13T07:28:28;22.00;55.70
13569;DHT22;6856;51.460;7.158;2022-09-13T07:31:08;22.00;55.60
13569;DHT22;6856;51.460;7.158;2022-09-13T07:33:47;22.00;55.60
13569;DHT22;6856;51.460;7.158;2022-09-13T07:36:30;22.10;55.70
13569;DHT22;6856;51.460;7.158;2022-09-13T07:39:05;22.10;55.60
13569;DHT22;6856;51.460;7.158;2022-09-13T07:41:45;22.10;55.50
13569;DHT22;6856;51.460;7.158;2022-09-13T07:44:21;22.20;55.50
13569;DHT22;6856;51.460;7.158;2022-09-13T07:47:00;22.30;55.60
13569;DHT22;6856;51.460;7.158;2022-09-13T07:49:35;22.30;55.40
13569;DHT22;6856;51.460;7.158;2022-09-13T07:52:08;22.40;55.40
13569;DHT22;6856;51.460;7.158;2022-09-13T07:54:42;22.40;55.60
13569;DHT22;6856;51.460;7.158;2022-09-13T07:57:16;22.50;55.50
13569;DHT22;6856;51.460;7.158;2022-09-13T07:59:49;22.50;55.50
13569;DHT22;6856;51.460;7.158;2022-09-13T08:02:23;22.60;55.50
13569;DHT22;6856;51.460;7.158;2022-09-13T08:04:58;22.60;55.40
13569;DHT22;6856;51.460;7.158;2022-09-13T08:07:31;22.70;55.40
13569;DHT22;6856;51.460;7.158;2022-09-13T08:10:05;22.80;55.40
13569;DHT22;6856;51.460;7.158;2022-09-13T08:12:39;22.80;55.40
13569;DHT22;6856;51.460;7.158;2022-09-13T08:15:12;22.90;55.30
13569;DHT22;6856;51.460;7.158;2022-09-13T08:17:47;22.90;55.30
13569;DHT22;6856;51.460;7.158;2022-09-13T08:20:22;22.80;55.10
13569;DHT22;6856;51.460;7.158;2022-09-13T08:22:55;23.00;55.00
13569;DHT22;6856;51.460;7.158;2022-09-13T08:25:30;23.00;55.00
13569;DHT22;6856;51.460;7.158;2022-09-13T08:28:05;23.10;55.10
13569;DHT22;6856;51.460;7.158;2022-09-13T08:30:40;23.20;55.10
13569;DHT22;6856;51.460;7.158;2022-09-13T08:33:15;23.20;55.00
13569;DHT22;6856;51.460;7.158;2022-09-13T08:35:51;23.30;55.00
13569;DHT22;6856;51.460;7.158;2022-09-13T08:38:26;23.40;54.90
13569;DHT22;6856;51.460;7.158;2022-09-13T08:41:03;23.40;55.00
13569;DHT22;6856;51.460;7.158;2022-09-13T08:43:55;23.50;54.90
13569;DHT22;6856;51.460;7.158;2022-09-13T08:46:33;23.60;54.30
13569;DHT22;6856;51.460;7.158;2022-09-13T08:49:11;23.70;54.20
13569;DHT22;6856;51.460;7.158;2022-09-13T08:51:53;23.80;54.00
13569;DHT22;6856;51.460;7.158;2022-09-13T08:54:28;23.90;54.10
13569;DHT22;6856;51.460;7.158;2022-09-13T08:57:09;24.00;54.10
13569;DHT22;6856;51.460;7.158;2022-09-13T08:59:53;23.80;54.00
13569;DHT22;6856;51.460;7.158;2022-09-13T09:02:47;24.10;53.90
13569;DHT22;6856;51.460;7.158;2022-09-13T09:05:32;24.20;53.70
13569;DHT22;6856;51.460;7.158;2022-09-13T09:08:21;24.30;53.60
13569;DHT22;6856;51.460;7.158;2022-09-13T09:11:08;24.30;53.60
13569;DHT22;6856;51.460;7.158;2022-09-13T09:13:49;24.40;53.50
13569;DHT22;6856;51.460;7.158;2022-09-13T09:16:31;24.40;53.40
13569;DHT22;6856;51.460;7.158;2022-09-13T09:19:16;24.50;54.00
13569;DHT22;6856;51.460;7.158;2022-09-13T09:21:55;24.50;53.50
13569;DHT22;6856;51.460;7.158;2022-09-13T09:24:34;24.60;53.70
13569;DHT22;6856;51.460;7.158;2022-09-13T09:27:14;24.70;53.60
13569;DHT22;6856;51.460;7.158;2022-09-13T09:29:51;24.80;53.40
13569;DHT22;6856;51.460;7.158;2022-09-13T09:32:46;24.90;53.40
13569;DHT22;6856;51.460;7.158;2022-09-13T09:35:41;24.90;53.30
13569;DHT22;6856;51.460;7.158;2022-09-13T09:38:32;25.00;53.50
13569;DHT22;6856;51.460;7.158;2022-09-13T09:41:22;25.10;53.20
13569;DHT22;6856;51.460;7.158;2022-09-13T09:44:04;25.20;52.80
13569;DHT22;6856;51.460;7.158;2022-09-13T09:46:51;25.30;53.60
13569;DHT22;6856;51.460;7.158;2022-09-13T09:49:34;25.40;53.00
13569;DHT22;6856;51.460;7.158;2022-09-13T09:52:34;25.50;52.70
13569;DHT22;6856;51.460;7.158;2022-09-13T09:55:16;25.60;52.30
13569;DHT22;6856;51.460;7.158;2022-09-13T09:57:57;25.70;52.60
13569;DHT22;6856;51.460;7.158;2022-09-13T10:00:33;25.80;53.20
13569;DHT22;6856;51.460;7.158;2022-09-13T10:03:17;25.90;52.70
13569;DHT22;6856;51.460;7.158;2022-09-13T10:06:04;25.90;52.10
13569;DHT22;6856;51.460;7.158;2022-09-13T10:08:40;26.10;52.10
13569;DHT22;6856;51.460;7.158;2022-09-13T10:11:15;26.10;52.30
13569;DHT22;6856;51.460;7.158;2022-09-13T10:14:00;26.20;52.10
13569;DHT22;6856;51.460;7.158;2022-09-13T10:16:35;26.30;52.00
13569;DHT22;6856;51.460;7.158;2022-09-13T10:19:22;26.50;52.00
13569;DHT22;6856;51.460;7.158;2022-09-13T10:22:01;26.50;51.30
13569;DHT22;6856;51.460;7.158;2022-09-13T10:24:37;26.60;51.60
13569;DHT22;6856;51.460;7.158;2022-09-13T10:27:23;26.70;51.90
13569;DHT22;6856;51.460;7.158;2022-09-13T10:30:03;26.80;51.20
13569;DHT22;6856;51.460;7.158;2022-09-13T10:32:38;26.90;51.30
13569;DHT22;6856;51.460;7.158;2022-09-13T10:35:15;27.00;51.10
13569;DHT22;6856;51.460;7.158;2022-09-13T10:38:01;27.00;50.90
13569;DHT22;6856;51.460;7.158;2022-09-13T10:40:36;27.10;51.00
13569;DHT22;6856;51.460;7.158;2022-09-13T10:43:14;27.20;50.80
13569;DHT22;6856;51.460;7.158;2022-09-13T10:45:51;27.30;50.40
13569;DHT22;6856;51.460;7.158;2022-09-13T10:48:28;27.30;50.30
13569;DHT22;6856;51.460;7.158;2022-09-13T10:51:14;27.40;51.10
13569;DHT22;6856;51.460;7.158;2022-09-13T10:54:15;27.50;50.30
13569;DHT22;6856;51.460;7.158;2022-09-13T10:56:51;27.50;50.10
13569;DHT22;6856;51.460;7.158;2022-09-13T10:59:25;27.50;50.20
13569;DHT22;6856;51.460;7.158;2022-09-13T11:02:29;27.60;50.10
13569;DHT22;6856;51.460;7.158;2022-09-13T11:05:20;27.60;50.10
13569;DHT22;6856;51.460;7.158;2022-09-13T11:08:21;27.60;50.20
13569;DHT22;6856;51.460;7.158;2022-09-13T11:11:10;27.60;49.30
13569;DHT22;6856;51.460;7.158;2022-09-13T11:14:08;27.70;49.70
13569;DHT22;6856;51.460;7.158;2022-09-13T11:16:58;27.70;50.20
13569;DHT22;6856;51.460;7.158;2022-09-13T11:20:04;27.80;49.90
13569;DHT22;6856;51.460;7.158;2022-09-13T11:23:03;27.60;49.50
13569;DHT22;6856;51.460;7.158;2022-09-13T11:26:04;27.90;49.60
13569;DHT22;6856;51.460;7.158;2022-09-13T11:28:59;28.00;50.00
13569;DHT22;6856;51.460;7.158;2022-09-13T11:31:46;28.10;49.40
13569;DHT22;6856;51.460;7.158;2022-09-13T11:34:41;28.20;50.10
13569;DHT22;6856;51.460;7.158;2022-09-13T11:37:41;28.30;49.90
13569;DHT22;6856;51.460;7.158;2022-09-13T11:40:30;28.50;49.70
13569;DHT22;6856;51.460;7.158;2022-09-13T11:43:26;28.60;48.70
13569;DHT22;6856;51.460;7.158;2022-09-13T11:46:18;28.70;48.80
13569;DHT22;6856;51.460;7.158;2022-09-13T11:49:20;28.70;48.90
13569;DHT22;6856;51.460;7.158;2022-09-13T11:52:10;28.80;48.90
13569;DHT22;6856;51.460;7.158;2022-09-13T11:55:01;28.90;49.10
13569;DHT22;6856;51.460;7.158;2022-09-13T11:57:48;29.00;48.50
13569;DHT22;6856;51.460;7.158;2022-09-13T12:00:25;29.10;48.60
13569;DHT22;6856;51.460;7.158;2022-09-13T12:03:09;29.10;48.60
13569;DHT22;6856;51.460;7.158;2022-09-13T12:05:51;29.20;48.70
13569;DHT22;6856;51.460;7.158;2022-09-13T12:08:32;29.20;48.60
13569;DHT22;6856;51.460;7.158;2022-09-13T12:11:14;29.30;48.20
13569;DHT22;6856;51.460;7.158;2022-09-13T12:13:53;29.30;48.10
13569;DHT22;6856;51.460;7.158;2022-09-13T12:16:32;29.30;48.10
13569;DHT22;6856;51.460;7.158;2022-09-13T12:19:14;29.30;48.20
13569;DHT22;6856;51.460;7.158;2022-09-13T12:21:53;29.30;48.30
13569;DHT22;6856;51.460;7.158;2022-09-13T12:24:33;29.30;48.20
13569;DHT22;6856;51.460;7.158;2022-09-13T12:27:22;29.40;48.40
13569;DHT22;6856;51.460;7.158;2022-09-13T12:30:06;29.40;48.10
13569;DHT22;6856;51.460;7.158;2022-09-13T12:32:47;29.50;48.50
13569;DHT22;6856;51.460;7.158;2022-09-13T12:35:30;29.50;48.10
13569;DHT22;6856;51.460;7.158;2022-09-13T12:38:26;29.60;47.60
13569;DHT22;6856;51.460;7.158;2022-09-13T12:41:31;29.60;47.40
13569;DHT22;6856;51.460;7.158;2022-09-13T12:44:26;29.60;47.60
13569;DHT22;6856;51.460;7.158;2022-09-13T12:50:56;29.70;47.80
13569;DHT22;6856;51.460;7.158;2022-09-13T12:54:00;29.70;47.40
13569;DHT22;6856;51.460;7.158;2022-09-13T12:57:00;29.70;47.40
13569;DHT22;6856;51.460;7.158;2022-09-13T13:00:01;29.80;46.60
13569;DHT22;6856;51.460;7.158;2022-09-13T13:03:03;29.80;47.00
13569;DHT22;6856;51.460;7.158;2022-09-13T13:05:46;29.80;46.50
13569;DHT22;6856;51.460;7.158;2022-09-13T13:08:27;29.80;46.60
13569;DHT22;6856;51.460;7.158;2022-09-13T13:11:04;29.70;46.60
13569;DHT22;6856;51.460;7.158;2022-09-13T13:13:43;29.70;46.60
13569;DHT22;6856;51.460;7.158;2022-09-13T13:16:25;29.70;46.80
13569;DHT22;6856;51.460;7.158;2022-09-13T13:19:24;29.70;46.60
13569;DHT22;6856;51.460;7.158;2022-09-13T13:25:33;29.70;46.40
13569;DHT22;6856;51.460;7.158;2022-09-13T13:31:45;29.60;47.20
13569;DHT22;6856;51.460;7.158;2022-09-13T13:34:38;29.60;47.00
13569;DHT22;6856;51.460;7.158;2022-09-13T13:37:35;29.70;47.30
13569;DHT22;6856;51.460;7.158;2022-09-13T13:40:24;29.70;47.10
13569;DHT22;6856;51.460;7.158;2022-09-13T13:43:30;29.70;47.00
13569;DHT22;6856;51.460;7.158;2022-09-13T13:46:27;29.60;47.40
13569;DHT22;6856;51.460;7.158;2022-09-13T13:49:43;29.60;47.60
13569;DHT22;6856;51.460;7.158;2022-09-13T13:52:36;29.50;47.80
13569;DHT22;6856;51.460;7.158;2022-09-13T13:55:38;29.50;47.80
13569;DHT22;6856;51.460;7.158;2022-09-13T13:58:30;29.50;48.20
13569;DHT22;6856;51.460;7.158;2022-09-13T14:01:15;29.50;48.00
13569;DHT22;6856;51.460;7.158;2022-09-13T14:07:58;29.40;47.70
13569;DHT22;6856;51.460;7.158;2022-09-13T14:10:48;29.30;47.90
13569;DHT22;6856;51.460;7.158;2022-09-13T14:13:43;29.40;48.10
13569;DHT22;6856;51.460;7.158;2022-09-13T14:16:33;29.30;47.80
13569;DHT22;6856;51.460;7.158;2022-09-13T14:19:19;29.30;48.10
13569;DHT22;6856;51.460;7.158;2022-09-13T14:22:12;29.30;47.80
13569;DHT22;6856;51.460;7.158;2022-09-13T14:24:49;29.30;47.80
13569;DHT22;6856;51.460;7.158;2022-09-13T14:27:26;29.30;47.80
13569;DHT22;6856;51.460;7.158;2022-09-13T14:30:04;29.30;47.50
13569;DHT22;6856;51.460;7.158;2022-09-13T14:32:53;29.30;47.50
13569;DHT22;6856;51.460;7.158;2022-09-13T14:35:30;29.20;47.60
13569;DHT22;6856;51.460;7.158;2022-09-13T14:38:19;29.20;47.30
13569;DHT22;6856;51.460;7.158;2022-09-13T14:40:58;29.30;47.20
13569;DHT22;6856;51.460;7.158;2022-09-13T14:43:32;29.20;47.30
13569;DHT22;6856;51.460;7.158;2022-09-13T14:46:08;29.10;47.20
13569;DHT22;6856;51.460;7.158;2022-09-13T14:48:48;29.10;47.50
13569;DHT22;6856;51.460;7.158;2022-09-13T14:51:27;29.00;47.60
13569;DHT22;6856;51.460;7.158;2022-09-13T14:54:11;29.00;47.80
13569;DHT22;6856;51.460;7.158;2022-09-13T14:56:51;29.00;47.50
13569;DHT22;6856;51.460;7.158;2022-09-13T14:59:30;29.10;47.70
13569;DHT22;6856;51.460;7.158;2022-09-13T15:02:16;29.00;48.00
13569;DHT22;6856;51.460;7.158;2022-09-13T15:04:53;29.00;48.20
13569;DHT22;6856;51.460;7.158;2022-09-13T15:07:30;28.90;48.40
13569;DHT22;6856;51.460;7.158;2022-09-13T15:10:20;28.90;48.70
13569;DHT22;6856;51.460;7.158;2022-09-13T15:13:06;28.90;48.90
13569;DHT22;6856;51.460;7.158;2022-09-13T15:15:41;28.90;48.70
13569;DHT22;6856;51.460;7.158;2022-09-13T15:18:28;29.00;49.00
13569;DHT22;6856;51.460;7.158;2022-09-13T15:21:15;29.00;49.20
13569;DHT22;6856;51.460;7.158;2022-09-13T15:23:49;29.00;48.90
13569;DHT22;6856;51.460;7.158;2022-09-13T15:26:25;29.00;48.70
13569;DHT22;6856;51.460;7.158;2022-09-13T15:28:59;29.00;48.50
13569;DHT22;6856;51.460;7.158;2022-09-13T15:31:36;29.00;48.40
13569;DHT22;6856;51.460;7.158;2022-09-13T15:34:10;29.00;48.80
13569;DHT22;6856;51.460;7.158;2022-09-13T15:37:11;28.90;48.40
13569;DHT22;6856;51.460;7.158;2022-09-13T15:39:47;28.90;48.70
13569;DHT22;6856;51.460;7.158;2022-09-13T15:42:23;28.90;48.90
13569;DHT22;6856;51.460;7.158;2022-09-13T15:44:57;28.80;48.60
13569;DHT22;6856;51.460;7.158;2022-09-13T15:47:30;28.80;48.70
13569;DHT22;6856;51.460;7.158;2022-09-13T15:50:05;28.70;49.00
13569;DHT22;6856;51.460;7.158;2022-09-13T15:52:39;28.70;49.30
13569;DHT22;6856;51.460;7.158;2022-09-13T15:55:12;28.70;49.30
13569;DHT22;6856;51.460;7.158;2022-09-13T15:57:47;28.60;49.30
13569;DHT22;6856;51.460;7.158;2022-09-13T16:00:23;28.60;50.00
13569;DHT22;6856;51.460;7.158;2022-09-13T16:02:58;28.50;49.80
13569;DHT22;6856;51.460;7.158;2022-09-13T16:05:32;28.60;49.70
13569;DHT22;6856;51.460;7.158;2022-09-13T16:08:08;28.50;49.60
13569;DHT22;6856;51.460;7.158;2022-09-13T16:10:43;28.40;49.60
13569;DHT22;6856;51.460;7.158;2022-09-13T16:13:19;28.40;49.60
13569;DHT22;6856;51.460;7.158;2022-09-13T16:15:52;28.30;49.60
13569;DHT22;6856;51.460;7.158;2022-09-13T16:18:28;28.30;49.90
13569;DHT22;6856;51.460;7.158;2022-09-13T16:21:03;28.30;49.90
13569;DHT22;6856;51.460;7.158;2022-09-13T16:23:36;28.20;50.00
13569;DHT22;6856;51.460;7.158;2022-09-13T16:26:10;28.20;50.30
13569;DHT22;6856;51.460;7.158;2022-09-13T16:28:45;28.20;50.10
13569;DHT22;6856;51.460;7.158;2022-09-13T16:31:18;28.10;50.20
13569;DHT22;6856;51.460;7.158;2022-09-13T16:33:52;28.10;50.40
13569;DHT22;6856;51.460;7.158;2022-09-13T16:36:25;28.10;50.50
13569;DHT22;6856;51.460;7.158;2022-09-13T16:38:59;28.00;50.40
13569;DHT22;6856;51.460;7.158;2022-09-13T16:41:33;28.00;50.50
13569;DHT22;6856;51.460;7.158;2022-09-13T16:44:07;28.00;50.80
13569;DHT22;6856;51.460;7.158;2022-09-13T16:46:41;27.90;50.90
13569;DHT22;6856;51.460;7.158;2022-09-13T16:49:15;27.90;50.80
13569;DHT22;6856;51.460;7.158;2022-09-13T16:51:48;27.90;51.00
13569;DHT22;6856;51.460;7.158;2022-09-13T16:54:22;27.80;50.80
13569;DHT22;6856;51.460;7.158;2022-09-13T16:56:56;27.80;51.00
13569;DHT22;6856;51.460;7.158;2022-09-13T16:59:31;27.80;51.20
13569;DHT22;6856;51.460;7.158;2022-09-13T17:02:06;27.70;51.20
13569;DHT22;6856;51.460;7.158;2022-09-13T17:04:40;27.70;51.20
13569;DHT22;6856;51.460;7.158;2022-09-13T17:07:13;27.60;51.20
13569;DHT22;6856;51.460;7.158;2022-09-13T17:09:47;27.60;51.30
13569;DHT22;6856;51.460;7.158;2022-09-13T17:12:20;27.50;51.40
13569;DHT22;6856;51.460;7.158;2022-09-13T17:14:55;27.50;51.50
13569;DHT22;6856;51.460;7.158;2022-09-13T17:17:28;27.50;51.70
13569;DHT22;6856;51.460;7.158;2022-09-13T17:20:09;27.50;51.90
13569;DHT22;6856;51.460;7.158;2022-09-13T17:22:45;27.40;51.90
13569;DHT22;6856;51.460;7.158;2022-09-13T17:25:18;27.40;51.90
13569;DHT22;6856;51.460;7.158;2022-09-13T17:27:51;27.40;52.00
13569;DHT22;6856;51.460;7.158;2022-09-13T17:30:26;27.40;52.00
13569;DHT22;6856;51.460;7.158;2022-09-13T17:33:00;27.30;52.60
13569;DHT22;6856;51.460;7.158;2022-09-13T17:35:36;27.30;51.90